TimeEST,TemperatureF,Dew PointF,Humidity,Sea Level PressureIn,VisibilityMPH,Wind Direction,Wind SpeedMPH,Gust SpeedMPH,PrecipitationIn,Events,Conditions,WindDirDegrees,DateUTC
12:53 AM,30.9,26.1,82,30.19,10.0,East,5.8,-,N/A,,Clear,80,2012-12-20 05:53:00
1:53 AM,32.0,26.1,79,30.19,10.0,SE,3.5,-,N/A,,Clear,130,2012-12-20 06:53:00
2:53 AM,30.9,25.0,79,30.19,10.0,ESE,3.5,-,N/A,,Clear,120,2012-12-20 07:53:00
3:53 AM,28.9,25.0,85,30.18,10.0,East,5.8,-,N/A,,Clear,100,2012-12-20 08:53:00
4:53 AM,28.9,25.0,85,30.17,10.0,East,6.9,-,N/A,,Clear,100,2012-12-20 09:53:00
5:53 AM,28.9,25.0,85,30.15,10.0,East,5.8,-,N/A,,Clear,90,2012-12-20 10:53:00
6:53 AM,32.0,26.6,80,30.10,10.0,ESE,9.2,-,N/A,,Clear,110,2012-12-20 11:53:00
7:01 AM,32.0,26.6,80,30.10,10.0,ESE,10.4,-,N/A,,Mostly Cloudy,120,2012-12-20 12:01:00
7:53 AM,32.0,27.0,82,30.12,10.0,East,9.2,-,N/A,,Mostly Cloudy,100,2012-12-20 12:53:00
8:53 AM,33.1,27.0,78,30.08,10.0,East,10.4,-,N/A,,Overcast,100,2012-12-20 13:53:00
9:53 AM,35.1,25.0,67,30.05,10.0,East,16.1,21.9,N/A,,Overcast,100,2012-12-20 14:53:00
10:53 AM,36.0,24.1,62,29.99,10.0,East,13.8,25.3,N/A,,Overcast,100,2012-12-20 15:53:00
11:53 AM,36.0,24.1,62,29.93,10.0,East,17.3,25.3,N/A,,Overcast,100,2012-12-20 16:53:00
12:53 PM,36.0,24.1,62,29.85,10.0,East,19.6,28.8,N/A,,Overcast,100,2012-12-20 17:53:00
1:53 PM,37.9,24.1,57,29.81,10.0,ESE,18.4,25.3,N/A,,Overcast,110,2012-12-20 18:53:00
2:53 PM,39.0,25.0,57,29.76,10.0,ESE,13.8,-,N/A,,Overcast,110,2012-12-20 19:53:00
3:45 PM,37.4,26.6,65,29.67,10.0,East,10.4,-,0.00,Rain,Light Rain,100,2012-12-20 20:45:00
3:53 PM,37.9,27.0,65,29.71,10.0,East,9.2,-,0.00,Rain,Light Rain,100,2012-12-20 20:53:00
4:53 PM,36.0,30.0,79,29.66,10.0,East,11.5,-,0.03,Rain,Light Rain,100,2012-12-20 21:53:00
5:53 PM,35.1,32.0,89,29.61,6.0,East,12.7,-,0.11,Rain,Rain,100,2012-12-20 22:53:00
6:53 PM,37.9,33.1,83,29.53,10.0,ESE,13.8,-,0.02,Rain,Light Rain,110,2012-12-20 23:53:00
7:53 PM,41.0,36.0,82,29.49,10.0,SE,9.2,-,0.01,Rain,Light Rain,130,2012-12-21 00:53:00
8:53 PM,42.1,37.0,82,29.46,6.0,SSE,12.7,21.9,0.05,Rain,Rain,160,2012-12-21 01:53:00
9:35 PM,42.8,37.4,81,29.40,10.0,SSE,12.7,26.5,0.05,Rain,Light Rain,160,2012-12-21 02:35:00
9:44 PM,42.8,37.4,81,29.39,10.0,SSE,15.0,-,0.05,Rain,Light Rain,160,2012-12-21 02:44:00
9:53 PM,43.0,36.0,76,29.42,10.0,SSE,12.7,24.2,0.05,Rain,Light Rain,160,2012-12-21 02:53:00
10:02 PM,42.8,35.6,76,29.38,10.0,SSE,15.0,20.7,0.00,,Mostly Cloudy,150,2012-12-21 03:02:00
10:53 PM,44.1,35.1,71,29.39,10.0,South,18.4,24.2,0.00,,Overcast,170,2012-12-21 03:53:00
11:53 PM,44.1,35.1,71,29.36,10.0,SSE,19.6,29.9,0.01,Rain,Light Rain,160,2012-12-21 04:53:00